createdAt,value
2018-03-03T00:02:45.499Z,161.12
2018-03-03T00:05:15.858Z,152.60
2018-03-03T00:07:42.909Z,148.60
2018-03-03T00:10:13.565Z,145.87
2018-03-03T00:12:40.671Z,146.20
2018-03-03T00:15:07.721Z,147.60
2018-03-03T00:17:34.776Z,151.50
2018-03-03T00:20:01.888Z,134.87
2018-03-03T00:22:41.404Z,143.03
2018-03-03T00:25:08.581Z,142.83
2018-03-03T00:27:35.647Z,149.53
2018-03-03T00:30:02.713Z,159.70
2018-03-03T00:32:29.842Z,147.27
2018-03-03T00:34:56.933Z,152.53
2018-03-03T00:40:05.344Z,172.45
2018-03-03T00:42:33.029Z,150.33
2018-03-03T00:47:38.920Z,162.48
2018-03-03T00:50:06.000Z,154.20
2018-03-03T00:52:33.335Z,150.17
2018-03-03T00:55:00.650Z,161.63
2018-03-03T00:57:30.049Z,153.63
2018-03-03T00:59:57.077Z,153.70
2018-03-03T01:02:24.191Z,144.77
2018-03-03T01:04:51.306Z,149.67
2018-03-03T01:07:18.361Z,145.60
2018-03-03T01:09:46.932Z,139.10
2018-03-03T01:12:13.664Z,140.47
2018-03-03T01:14:40.733Z,150.20
2018-03-03T01:17:07.875Z,145.50
2018-03-03T01:19:34.934Z,138.57
2018-03-03T01:22:02.029Z,130.20
2018-03-03T01:24:29.159Z,146.07
2018-03-03T01:26:56.238Z,146.87
2018-03-03T01:29:23.330Z,155.37
2018-03-03T01:31:50.714Z,142.70
2018-03-03T01:34:17.789Z,143.23
2018-03-03T01:36:44.899Z,133.77
2018-03-03T01:39:12.935Z,143.17
2018-03-03T01:41:39.995Z,140.33
2018-03-03T01:44:07.080Z,140.30
2018-03-03T01:46:34.186Z,150.73
2018-03-03T01:49:01.262Z,156.70
2018-03-03T01:51:40.207Z,152.43
2018-03-03T01:54:07.268Z,153.50
2018-03-03T01:56:34.330Z,139.37
2018-03-03T01:59:01.477Z,152.10
2018-03-03T02:01:29.248Z,164.43
2018-03-03T02:03:56.324Z,162.80
2018-03-03T02:09:02.341Z,176.12
2018-03-03T02:11:29.495Z,162.13
2018-03-03T02:13:56.554Z,154.33
2018-03-03T02:16:23.616Z,156.90
2018-03-03T02:18:50.723Z,146.37
2018-03-03T02:21:17.804Z,161.00
2018-03-03T02:23:44.875Z,154.93
2018-03-03T02:26:12.017Z,158.30
2018-03-03T02:28:39.104Z,163.00
2018-03-03T02:31:06.180Z,151.77
2018-03-03T02:33:33.312Z,152.93
2018-03-03T02:36:00.371Z,150.93
2018-03-03T02:38:27.435Z,157.83
2018-03-03T02:40:54.564Z,160.47
2018-03-03T02:43:21.636Z,157.70
2018-03-03T02:45:48.786Z,154.93
2018-03-03T02:48:15.901Z,147.70
2018-03-03T02:50:42.965Z,155.30
2018-03-03T02:53:10.027Z,147.93
2018-03-03T02:55:37.148Z,146.93
2018-03-03T02:58:04.211Z,148.83
2018-03-03T03:00:31.265Z,149.57
2018-03-03T03:02:58.390Z,152.90
2018-03-03T03:05:25.451Z,158.87
2018-03-03T03:10:30.573Z,163.30
2018-03-03T03:12:57.635Z,153.87
2018-03-03T03:15:24.703Z,146.13
2018-03-03T03:17:51.820Z,158.87
2018-03-03T03:20:18.905Z,147.73
2018-03-03T03:22:45.977Z,127.90
2018-03-03T03:25:13.096Z,144.97
2018-03-03T03:27:40.170Z,145.43
2018-03-03T03:30:07.247Z,142.67
2018-03-03T03:32:34.344Z,147.40
2018-03-03T03:35:04.353Z,151.47
2018-03-03T03:37:31.410Z,147.57
2018-03-03T03:39:58.540Z,147.07
2018-03-03T03:42:26.458Z,167.53
2018-03-03T03:44:53.530Z,145.47
2018-03-03T03:47:20.663Z,139.70
2018-03-03T03:49:47.731Z,146.40
2018-03-03T03:52:14.783Z,140.53
2018-03-03T03:54:41.913Z,144.80
2018-03-03T03:57:08.995Z,157.00
2018-03-03T03:59:36.062Z,155.90
2018-03-03T04:02:03.181Z,151.90
2018-03-03T04:04:30.280Z,161.00
2018-03-03T04:06:57.443Z,153.30
2018-03-03T04:09:24.560Z,149.27
2018-03-03T04:11:51.631Z,149.60
2018-03-03T04:14:18.694Z,148.57
2018-03-03T04:16:45.812Z,144.10
2018-03-03T04:19:12.888Z,143.17
2018-03-03T04:21:39.962Z,138.60
2018-03-03T04:24:07.089Z,147.67
2018-03-03T04:26:34.162Z,149.80
2018-03-03T04:29:01.243Z,139.33
2018-03-03T04:34:07.372Z,173.98
2018-03-03T04:36:34.479Z,165.13
2018-03-03T04:39:01.548Z,150.93
2018-03-03T04:41:28.626Z,164.60
2018-03-03T04:43:55.755Z,150.67
2018-03-03T04:46:22.823Z,159.70
2018-03-03T04:48:49.890Z,150.50
2018-03-03T04:51:16.995Z,156.33
2018-03-03T04:53:44.066Z,152.13
2018-03-03T04:56:11.131Z,140.13
2018-03-03T04:58:38.252Z,156.37
2018-03-03T05:01:05.323Z,146.07
2018-03-03T05:03:32.378Z,142.57
2018-03-03T05:05:59.968Z,154.40
2018-03-03T05:08:27.023Z,144.40
2018-03-03T05:10:54.083Z,149.97
2018-03-03T05:13:21.190Z,141.70
2018-03-03T05:15:48.336Z,150.33
2018-03-03T05:18:15.403Z,142.07
2018-03-03T05:20:42.545Z,155.50
2018-03-03T05:23:09.662Z,154.40
2018-03-03T05:25:36.708Z,158.03
2018-03-03T05:28:03.833Z,154.33
2018-03-03T05:33:09.153Z,175.77
2018-03-03T05:35:36.219Z,149.30
2018-03-03T05:38:03.852Z,151.67
2018-03-03T05:40:30.968Z,154.30
2018-03-03T05:42:58.034Z,156.00
2018-03-03T05:45:25.108Z,156.00
2018-03-03T05:47:55.715Z,158.87
2018-03-03T05:50:22.790Z,159.43
2018-03-03T05:52:49.852Z,155.90
2018-03-03T05:55:16.984Z,168.97
2018-03-03T05:57:44.069Z,151.77
2018-03-03T06:00:11.142Z,165.67
2018-03-03T06:02:38.342Z,158.83
2018-03-03T06:05:05.417Z,154.10
2018-03-03T06:07:32.492Z,166.60
2018-03-03T06:09:59.615Z,153.63
2018-03-03T06:12:26.706Z,154.33
2018-03-03T06:14:57.109Z,155.50
2018-03-03T06:17:24.315Z,159.33
2018-03-03T06:19:51.389Z,168.57
2018-03-03T06:22:18.535Z,170.97
2018-03-03T06:24:45.655Z,158.80
2018-03-03T06:27:12.722Z,151.83
2018-03-03T06:29:39.804Z,165.67
2018-03-03T06:34:44.922Z,195.93
2018-03-03T06:37:12.054Z,166.77
2018-03-03T06:39:39.120Z,169.70
2018-03-03T06:42:06.189Z,157.77
2018-03-03T06:44:33.755Z,169.63
2018-03-03T06:47:00.819Z,146.10
2018-03-03T06:49:28.734Z,157.33
2018-03-03T06:51:55.835Z,152.23
2018-03-03T06:54:22.904Z,154.47
2018-03-03T06:56:49.988Z,160.30
2018-03-03T06:59:17.180Z,145.00
2018-03-03T07:01:44.257Z,161.17
2018-03-03T07:04:11.423Z,167.33
2018-03-03T07:06:38.440Z,170.70
2018-03-03T07:09:05.510Z,171.93
2018-03-03T07:11:32.594Z,180.17
2018-03-03T07:13:59.716Z,180.90
2018-03-03T07:16:26.873Z,174.93
2018-03-03T07:18:54.016Z,189.30
2018-03-03T07:21:21.243Z,171.17
2018-03-03T07:23:48.323Z,171.20
2018-03-03T07:26:15.474Z,183.70
2018-03-03T07:28:43.446Z,184.50
2018-03-03T07:31:10.551Z,176.53
2018-03-03T07:33:37.876Z,184.00
2018-03-03T07:36:05.022Z,177.63
2018-03-03T07:38:32.565Z,187.23
2018-03-03T07:41:00.556Z,188.47
2018-03-03T07:43:27.683Z,175.70
2018-03-03T07:45:54.759Z,177.80
2018-03-03T07:48:21.830Z,178.00
2018-03-03T07:50:48.951Z,184.10
2018-03-03T07:53:16.031Z,162.60
2018-03-03T07:58:31.228Z,193.65
2018-03-03T08:00:58.291Z,167.73
2018-03-03T08:03:26.846Z,179.77
2018-03-03T08:05:54.435Z,174.20
2018-03-03T08:08:21.520Z,169.37
2018-03-03T08:10:48.613Z,161.17
2018-03-03T08:13:15.740Z,172.83
2018-03-03T08:15:42.837Z,91.40
2018-03-03T08:18:09.890Z,173.43
2018-03-03T08:20:37.012Z,179.87
2018-03-03T08:23:04.102Z,163.33
2018-03-03T08:25:31.522Z,163.07
2018-03-03T08:27:58.641Z,141.40
2018-03-03T08:30:25.708Z,151.53
2018-03-03T08:32:53.735Z,162.23
2018-03-03T08:35:24.100Z,156.80
2018-03-03T08:40:28.668Z,165.68
2018-03-03T08:45:30.182Z,137.13
2018-03-03T08:53:14.713Z,153.52
2018-03-03T08:55:42.279Z,144.07
2018-03-03T09:00:41.105Z,150.53
2018-03-03T09:03:14.452Z,145.93
2018-03-03T09:05:44.096Z,148.63
2018-03-03T09:08:12.529Z,116.60
2018-03-03T09:19:28.605Z,155.17
2018-03-03T09:21:55.763Z,145.47
2018-03-03T09:26:54.039Z,135.73
2018-03-03T09:29:21.191Z,139.17
2018-03-03T09:31:48.850Z,131.53
2018-03-03T09:36:50.909Z,140.17
2018-03-03T09:42:04.167Z,147.30
2018-03-03T09:49:56.394Z,154.93
2018-03-03T09:57:38.616Z,130.63
2018-03-03T10:00:06.260Z,130.27
2018-03-03T10:02:33.215Z,136.83
2018-03-03T10:05:00.336Z,141.17
2018-03-03T10:07:27.392Z,143.50
2018-03-03T10:09:54.470Z,146.97
2018-03-03T10:12:21.672Z,137.00
2018-03-03T10:17:19.902Z,134.03
2018-03-03T10:19:47.138Z,132.13
2018-03-03T10:22:14.743Z,133.77
2018-03-03T10:24:41.817Z,131.77
2018-03-03T10:27:08.936Z,140.97
2018-03-03T10:29:36.001Z,128.33
2018-03-03T10:32:03.087Z,120.97
2018-03-03T10:34:30.208Z,128.93
2018-03-03T10:36:57.301Z,100.77
2018-03-03T10:39:24.361Z,105.40
2018-03-03T10:41:51.909Z,93.33
2018-03-03T10:46:57.529Z,99.30
2018-03-03T10:49:24.584Z,101.73
2018-03-03T10:51:51.660Z,88.50
2018-03-03T10:54:19.446Z,83.57
2018-03-03T10:56:46.509Z,81.83
2018-03-03T10:59:13.574Z,80.40
2018-03-03T11:01:40.691Z,86.73
2018-03-03T11:04:07.767Z,83.83
2018-03-03T11:06:34.834Z,82.00
2018-03-03T11:09:01.976Z,78.83
2018-03-03T11:11:29.059Z,73.27
2018-03-03T11:13:56.168Z,83.10
2018-03-03T11:16:23.281Z,80.90
2018-03-03T11:18:50.356Z,75.63
2018-03-03T11:21:17.416Z,71.83
2018-03-03T11:23:44.531Z,74.53
2018-03-03T11:26:11.597Z,75.07
2018-03-03T11:28:38.657Z,76.80
2018-03-03T11:31:05.770Z,85.43
2018-03-03T11:33:33.809Z,70.53
2018-03-03T11:36:00.872Z,79.13
2018-03-03T11:38:28.418Z,67.90
2018-03-03T11:40:55.511Z,60.03
2018-03-03T11:43:22.603Z,77.23
2018-03-03T11:45:49.723Z,69.53
2018-03-03T11:48:17.239Z,68.07
2018-03-03T11:50:44.324Z,62.23
2018-03-03T11:53:11.432Z,62.13
2018-03-03T11:55:38.905Z,70.40
2018-03-03T11:58:05.973Z,66.93
2018-03-03T12:00:33.112Z,75.30
2018-03-03T12:03:00.210Z,64.70
2018-03-03T12:05:28.778Z,68.47
2018-03-03T12:10:34.253Z,68.10
2018-03-03T12:13:01.365Z,56.77
2018-03-03T12:15:29.082Z,55.43
2018-03-03T12:17:56.124Z,58.30
2018-03-03T12:20:23.251Z,57.83
2018-03-03T12:22:50.328Z,57.73
2018-03-03T12:25:17.399Z,59.27
2018-03-03T12:27:44.554Z,57.67
2018-03-03T12:30:11.627Z,59.37
2018-03-03T12:35:17.363Z,61.75
2018-03-03T12:37:44.964Z,71.33
2018-03-03T12:40:12.044Z,59.97
2018-03-03T12:42:39.166Z,70.93
2018-03-03T12:45:06.829Z,63.87
2018-03-03T12:47:33.941Z,63.60
2018-03-03T12:50:01.967Z,64.50
2018-03-03T12:55:13.493Z,67.32
2018-03-03T12:57:40.555Z,49.00
2018-03-03T13:00:07.628Z,42.20
2018-03-03T13:02:34.736Z,33.20
2018-03-03T13:05:01.812Z,40.33
2018-03-03T13:07:28.892Z,41.13
2018-03-03T13:09:56.007Z,46.87
2018-03-03T13:12:23.069Z,47.23
2018-03-03T13:14:50.128Z,50.33
2018-03-03T13:17:17.252Z,51.90
2018-03-03T13:19:44.304Z,51.10
2018-03-03T13:22:11.382Z,48.90
2018-03-03T13:24:38.465Z,48.87
2018-03-03T13:27:05.517Z,45.77
2018-03-03T13:29:33.040Z,46.67
2018-03-03T13:34:37.264Z,45.60
2018-03-03T13:37:05.758Z,45.20
2018-03-03T13:42:17.396Z,40.90
2018-03-03T13:44:44.444Z,35.20
2018-03-03T13:47:11.581Z,34.17
2018-03-03T13:49:38.607Z,32.97
2018-03-03T13:52:05.673Z,31.90
2018-03-03T13:54:32.765Z,31.00
2018-03-03T13:57:00.024Z,36.70
2018-03-03T13:59:27.010Z,36.67
2018-03-03T14:01:54.107Z,32.03
2018-03-03T14:04:21.240Z,33.93
2018-03-03T14:06:48.432Z,38.20
2018-03-03T14:09:15.394Z,36.33
2018-03-03T14:11:42.520Z,33.33
2018-03-03T14:16:47.764Z,35.47
2018-03-03T14:19:14.890Z,40.27
2018-03-03T14:21:41.958Z,38.77
2018-03-03T14:24:09.464Z,41.57
2018-03-03T14:26:36.530Z,45.30
2018-03-03T14:29:03.591Z,43.83
2018-03-03T14:31:34.321Z,47.67
2018-03-03T14:34:01.403Z,48.83
2018-03-03T14:36:28.489Z,65.67
2018-03-03T14:38:55.695Z,61.20
2018-03-03T14:41:22.789Z,62.17
2018-03-03T14:43:49.960Z,56.33
2018-03-03T14:48:55.209Z,63.17
2018-03-03T14:51:22.785Z,64.43
2018-03-03T14:53:49.841Z,57.87
2018-03-03T14:56:16.905Z,56.77
2018-03-03T14:58:44.052Z,62.10
2018-03-03T15:01:11.130Z,50.60
2018-03-03T15:03:38.191Z,49.37
2018-03-03T15:06:05.345Z,53.23
2018-03-03T15:08:32.456Z,52.33
2018-03-03T15:10:59.541Z,44.43
2018-03-03T15:13:26.719Z,49.63
2018-03-03T15:15:53.821Z,42.70
2018-03-03T15:18:21.756Z,47.57
2018-03-03T15:20:49.442Z,46.53
2018-03-03T15:23:16.511Z,48.37
2018-03-03T15:25:43.609Z,48.27
2018-03-03T15:28:10.786Z,39.97
2018-03-03T15:30:38.155Z,36.33
2018-03-03T15:33:05.734Z,43.60
2018-03-03T15:35:32.924Z,43.47
2018-03-03T15:37:59.956Z,46.27
2018-03-03T15:40:27.014Z,45.20
2018-03-03T15:42:54.128Z,54.33
2018-03-03T15:45:21.224Z,42.07
2018-03-03T15:47:49.223Z,48.50
2018-03-03T15:50:16.324Z,46.20
2018-03-03T15:52:43.392Z,41.87
2018-03-03T15:55:10.453Z,55.00
2018-03-03T15:57:37.719Z,48.23
2018-03-03T16:00:06.190Z,42.70
2018-03-03T16:02:34.930Z,52.70
2018-03-03T16:05:02.071Z,51.47
2018-03-03T16:07:29.131Z,54.37
2018-03-03T16:12:35.641Z,58.35
2018-03-03T16:15:03.624Z,55.77
2018-03-03T16:17:31.176Z,63.03
2018-03-03T16:22:37.561Z,59.35
2018-03-03T16:25:04.149Z,58.53
2018-03-03T16:27:31.455Z,59.13
2018-03-03T16:29:58.505Z,55.40
2018-03-03T16:32:25.615Z,54.43
2018-03-03T16:34:52.763Z,53.27
2018-03-03T16:37:19.907Z,57.00
2018-03-03T16:39:47.015Z,51.37
2018-03-03T16:42:14.999Z,53.67
2018-03-03T16:44:42.090Z,52.67
2018-03-03T16:47:09.187Z,56.67
2018-03-03T16:49:36.243Z,51.33
2018-03-03T16:52:03.296Z,57.53
2018-03-03T16:54:30.407Z,47.57
2018-03-03T16:56:57.459Z,49.40
2018-03-03T16:59:24.508Z,50.23
2018-03-03T17:01:51.598Z,52.87
2018-03-03T17:04:18.649Z,52.33
2018-03-03T17:06:45.691Z,59.80
2018-03-03T17:11:53.915Z,59.08
2018-03-03T17:14:21.034Z,53.77
2018-03-03T17:16:48.092Z,57.93
2018-03-03T17:19:15.886Z,50.70
2018-03-03T17:21:43.527Z,56.50
2018-03-03T17:24:11.778Z,51.33
2018-03-03T17:26:39.722Z,57.40
2018-03-03T17:29:06.827Z,55.47
2018-03-03T17:31:35.343Z,50.43
2018-03-03T17:34:02.437Z,49.97
2018-03-03T17:36:29.519Z,51.17
2018-03-03T17:38:56.581Z,51.87
2018-03-03T17:41:23.657Z,55.53
2018-03-03T17:43:50.777Z,54.90
2018-03-03T17:46:17.886Z,47.37
2018-03-03T17:48:44.912Z,51.97
2018-03-03T17:51:12.043Z,50.23
2018-03-03T17:53:39.604Z,55.30
2018-03-03T17:56:06.669Z,50.33
2018-03-03T17:58:33.797Z,49.27
2018-03-03T18:01:00.876Z,61.03
2018-03-03T18:03:28.889Z,61.53
2018-03-03T18:05:56.038Z,57.50
2018-03-03T18:08:23.939Z,57.27
2018-03-03T18:10:51.832Z,53.33
2018-03-03T18:16:01.624Z,67.30
2018-03-03T18:18:31.152Z,63.80
2018-03-03T18:20:58.216Z,53.67
2018-03-03T18:23:25.282Z,55.53
2018-03-03T18:25:52.437Z,178.07
2018-03-03T18:28:19.532Z,104.77
2018-03-03T18:30:46.596Z,122.00
2018-03-03T18:33:15.097Z,74.03
2018-03-03T18:35:42.435Z,101.77
2018-03-03T18:38:09.525Z,108.10
2018-03-03T18:40:37.624Z,66.77
2018-03-03T18:43:05.653Z,59.47
2018-03-03T18:45:33.700Z,246.47
2018-03-03T18:48:01.454Z,97.70
2018-03-03T18:50:28.373Z,69.90
2018-03-03T18:52:55.432Z,97.23
2018-03-03T18:55:22.549Z,82.40
2018-03-03T18:57:49.598Z,61.57
2018-03-03T19:00:16.644Z,57.63
2018-03-03T19:02:43.772Z,60.10
2018-03-03T19:05:10.945Z,63.17
2018-03-03T19:07:38.060Z,63.50
2018-03-03T19:10:05.254Z,63.07
2018-03-03T19:12:32.578Z,56.23
2018-03-03T19:14:59.644Z,60.80
2018-03-03T19:17:26.744Z,63.53
2018-03-03T19:19:53.810Z,66.23
2018-03-03T19:22:20.960Z,59.80
2018-03-03T19:24:48.167Z,61.27
2018-03-03T19:27:15.211Z,65.67
2018-03-03T19:29:42.265Z,56.60
2018-03-03T19:32:09.396Z,70.80
2018-03-03T19:34:36.419Z,63.07
2018-03-03T19:39:48.047Z,64.47
2018-03-03T19:42:15.116Z,66.33
2018-03-03T19:44:42.640Z,64.47
2018-03-03T19:47:09.761Z,60.73
2018-03-03T19:49:36.838Z,63.90
2018-03-03T19:52:03.964Z,63.13
2018-03-03T19:54:31.041Z,57.77
2018-03-03T19:59:43.418Z,65.18
2018-03-03T20:02:08.625Z,58.13
2018-03-03T20:04:35.661Z,56.23
2018-03-03T20:07:02.845Z,59.63
2018-03-03T20:09:29.954Z,64.83
2018-03-03T20:11:57.216Z,68.30
2018-03-03T20:14:24.280Z,66.67
2018-03-03T20:16:51.328Z,63.93
2018-03-03T20:19:18.407Z,70.70
2018-03-03T20:21:45.506Z,70.27
2018-03-03T20:24:13.623Z,67.40
2018-03-03T20:26:40.632Z,66.10
2018-03-03T20:29:07.729Z,67.27
2018-03-03T20:31:35.635Z,70.33
2018-03-03T20:34:02.684Z,71.67
2018-03-03T20:36:29.776Z,75.77
2018-03-03T20:38:56.831Z,65.47
2018-03-03T20:41:23.893Z,74.10
2018-03-03T20:43:51.097Z,74.77
2018-03-03T20:46:18.067Z,73.90
2018-03-03T20:48:45.133Z,75.07
2018-03-03T20:51:13.483Z,79.70
2018-03-03T20:53:40.530Z,77.53
2018-03-03T20:56:07.578Z,78.57
2018-03-03T20:58:34.804Z,78.37
2018-03-03T21:01:01.868Z,80.03
2018-03-03T21:03:28.964Z,85.60
2018-03-03T21:05:56.055Z,76.27
2018-03-03T21:11:03.663Z,84.05
2018-03-03T21:13:31.367Z,78.67
2018-03-03T21:15:58.353Z,79.83
2018-03-03T21:18:27.080Z,76.30
2018-03-03T21:20:54.121Z,80.70
2018-03-03T21:23:21.204Z,82.93
2018-03-03T21:25:48.452Z,86.30
2018-03-03T21:28:15.335Z,93.80
2018-03-03T21:30:42.383Z,87.20
2018-03-03T21:33:09.481Z,92.83
2018-03-03T21:35:40.046Z,98.30
2018-03-03T21:38:07.104Z,93.33
2018-03-03T21:40:34.214Z,112.67
2018-03-03T21:43:01.273Z,145.87
2018-03-03T21:45:29.361Z,126.87
2018-03-03T21:47:56.860Z,108.90
2018-03-03T21:50:23.946Z,137.10
2018-03-03T21:55:20.284Z,116.03
2018-03-03T21:57:47.641Z,104.27
2018-03-03T22:00:14.941Z,105.90
2018-03-03T22:05:19.779Z,106.78
2018-03-03T22:07:46.873Z,99.10
2018-03-03T22:10:13.972Z,100.70
2018-03-03T22:12:41.041Z,95.97
2018-03-03T22:15:08.184Z,93.57
2018-03-03T22:17:35.276Z,90.97
2018-03-03T22:20:02.860Z,96.63
2018-03-03T22:22:29.962Z,94.90
2018-03-03T22:24:57.204Z,95.03
2018-03-03T22:27:24.349Z,95.00
2018-03-03T22:29:51.447Z,84.83
2018-03-03T22:32:18.519Z,97.87
2018-03-03T22:37:23.745Z,108.07
2018-03-03T22:39:51.546Z,105.13
2018-03-03T22:42:18.581Z,104.17
2018-03-03T22:44:47.453Z,108.83
2018-03-03T22:47:12.727Z,96.67
2018-03-03T22:49:39.772Z,96.13
2018-03-03T22:52:06.875Z,102.73
2018-03-03T22:54:34.864Z,102.00
2018-03-03T22:57:02.859Z,101.73
2018-03-03T22:59:30.016Z,102.47
2018-03-03T23:01:57.067Z,102.97
2018-03-03T23:04:24.099Z,109.40
2018-03-03T23:06:52.072Z,114.83
2018-03-03T23:09:19.123Z,117.63
2018-03-03T23:11:47.283Z,111.23
2018-03-03T23:14:15.328Z,113.60
2018-03-03T23:16:42.386Z,112.17
2018-03-03T23:19:09.423Z,117.83
2018-03-03T23:21:37.546Z,114.07
2018-03-03T23:24:04.618Z,107.60
2018-03-03T23:26:31.647Z,112.87
2018-03-03T23:28:58.749Z,106.50
2018-03-03T23:31:25.804Z,112.30
2018-03-03T23:33:53.124Z,109.47
2018-03-03T23:36:20.218Z,108.57
2018-03-03T23:38:47.283Z,105.10
2018-03-03T23:41:15.153Z,101.87
2018-03-03T23:43:43.203Z,109.03
2018-03-03T23:46:11.143Z,109.57
2018-03-03T23:48:38.286Z,105.43
2018-03-03T23:51:05.468Z,100.97
2018-03-03T23:53:32.531Z,109.67
2018-03-03T23:55:59.578Z,115.43
